sensor_id;sensor_type;location;lat;lon;timestamp;pressure;altitude;pressure_sealevel;temperature;humidity
35676;BME280;21790;42.668;23.298;2023-04-20T00:00:00;94330.34;;;17.46;39.24
35676;BME280;21790;42.668;23.298;2023-04-20T00:02:32;94328.84;;;17.51;39.32
35676;BME280;21790;42.668;23.298;2023-04-20T00:04:58;94334.22;;;17.38;39.38
35676;BME280;21790;42.668;23.298;2023-04-20T00:07:23;94323.47;;;17.53;39.36
35676;BME280;21790;42.668;23.298;2023-04-20T00:09:49;94327.28;;;17.55;39.24
35676;BME280;21790;42.668;23.298;2023-04-20T00:12:15;94306.28;;;17.38;39.49
35676;BME280;21790;42.668;23.298;2023-04-20T00:14:41;94322.28;;;17.37;39.67
35676;BME280;21790;42.668;23.298;2023-04-20T00:17:06;94313.91;;;17.37;39.71
35676;BME280;21790;42.668;23.298;2023-04-20T00:19:34;94314.34;;;17.47;39.32
35676;BME280;21790;42.668;23.298;2023-04-20T00:22:02;94317.81;;;17.70;38.98
35676;BME280;21790;42.668;23.298;2023-04-20T00:24:28;94307.16;;;17.68;38.87
35676;BME280;21790;42.668;23.298;2023-04-20T00:26:54;94306.97;;;17.55;39.12
35676;BME280;21790;42.668;23.298;2023-04-20T00:29:19;94309.28;;;17.51;39.24
35676;BME280;21790;42.668;23.298;2023-04-20T00:31:45;94309.22;;;17.56;39.21
35676;BME280;21790;42.668;23.298;2023-04-20T00:34:11;94316.63;;;17.60;39.26
35676;BME280;21790;42.668;23.298;2023-04-20T00:36:36;94316.63;;;17.54;39.24
35676;BME280;21790;42.668;23.298;2023-04-20T00:39:02;94300.41;;;17.47;39.49
35676;BME280;21790;42.668;23.298;2023-04-20T00:41:30;94305.72;;;17.50;39.35
35676;BME280;21790;42.668;23.298;2023-04-20T00:43:55;94308.56;;;17.39;39.69
35676;BME280;21790;42.668;23.298;2023-04-20T00:46:21;94310.56;;;17.44;39.87
35676;BME280;21790;42.668;23.298;2023-04-20T00:48:50;94307.56;;;17.37;40.12
35676;BME280;21790;42.668;23.298;2023-04-20T00:51:17;94306.81;;;17.31;40.24
35676;BME280;21790;42.668;23.298;2023-04-20T00:53:43;94310.81;;;17.46;39.78
35676;BME280;21790;42.668;23.298;2023-04-20T00:56:11;94309.03;;;17.49;39.98
35676;BME280;21790;42.668;23.298;2023-04-20T00:58:37;94301.84;;;17.59;39.85
35676;BME280;21790;42.668;23.298;2023-04-20T01:01:04;94309.72;;;17.66;39.87
35676;BME280;21790;42.668;23.298;2023-04-20T01:03:33;94303.13;;;17.58;39.82
35676;BME280;21790;42.668;23.298;2023-04-20T01:05:58;94300.22;;;17.34;40.41
35676;BME280;21790;42.668;23.298;2023-04-20T01:08:25;94299.97;;;17.32;40.60
35676;BME280;21790;42.668;23.298;2023-04-20T01:10:53;94303.03;;;17.28;40.86
35676;BME280;21790;42.668;23.298;2023-04-20T01:13:18;94305.09;;;17.22;40.90
35676;BME280;21790;42.668;23.298;2023-04-20T01:15:45;94307.91;;;17.17;41.29
35676;BME280;21790;42.668;23.298;2023-04-20T01:18:11;94300.84;;;17.04;41.42
35676;BME280;21790;42.668;23.298;2023-04-20T01:20:36;94305.63;;;17.15;41.42
35676;BME280;21790;42.668;23.298;2023-04-20T01:23:02;94300.59;;;17.02;41.49
35676;BME280;21790;42.668;23.298;2023-04-20T01:25:28;94307.38;;;17.24;40.82
35676;BME280;21790;42.668;23.298;2023-04-20T01:27:54;94311.22;;;17.15;41.70
35676;BME280;21790;42.668;23.298;2023-04-20T01:30:20;94306.13;;;17.13;41.47
35676;BME280;21790;42.668;23.298;2023-04-20T01:32:46;94300.81;;;17.15;41.71
35676;BME280;21790;42.668;23.298;2023-04-20T01:35:12;94302.88;;;17.04;42.09
35676;BME280;21790;42.668;23.298;2023-04-20T01:37:39;94301.09;;;17.12;41.98
35676;BME280;21790;42.668;23.298;2023-04-20T01:40:08;94300.31;;;17.11;41.61
35676;BME280;21790;42.668;23.298;2023-04-20T01:42:35;94292.00;;;17.00;41.74
35676;BME280;21790;42.668;23.298;2023-04-20T01:45:00;94298.56;;;17.03;41.68
35676;BME280;21790;42.668;23.298;2023-04-20T01:47:27;94288.91;;;17.04;41.43
35676;BME280;21790;42.668;23.298;2023-04-20T01:49:53;94290.16;;;17.08;41.53
35676;BME280;21790;42.668;23.298;2023-04-20T01:52:19;94279.28;;;17.05;41.47
35676;BME280;21790;42.668;23.298;2023-04-20T01:54:44;94289.16;;;17.11;41.47
35676;BME280;21790;42.668;23.298;2023-04-20T01:57:10;94279.75;;;17.09;41.67
35676;BME280;21790;42.668;23.298;2023-04-20T01:59:35;94289.69;;;17.04;41.85
35676;BME280;21790;42.668;23.298;2023-04-20T02:02:01;94284.13;;;16.93;41.93
35676;BME280;21790;42.668;23.298;2023-04-20T02:04:26;94281.59;;;16.95;41.74
35676;BME280;21790;42.668;23.298;2023-04-20T02:06:52;94276.28;;;16.86;42.16
35676;BME280;21790;42.668;23.298;2023-04-20T02:09:17;94281.63;;;16.90;41.92
35676;BME280;21790;42.668;23.298;2023-04-20T02:11:43;94280.88;;;16.84;42.15
35676;BME280;21790;42.668;23.298;2023-04-20T02:14:08;94267.97;;;16.75;42.23
35676;BME280;21790;42.668;23.298;2023-04-20T02:16:34;94284.13;;;16.93;41.71
35676;BME280;21790;42.668;23.298;2023-04-20T02:18:59;94282.63;;;16.92;42.02
35676;BME280;21790;42.668;23.298;2023-04-20T02:21:25;94280.09;;;16.89;42.05
35676;BME280;21790;42.668;23.298;2023-04-20T02:23:52;94278.28;;;16.97;41.81
35676;BME280;21790;42.668;23.298;2023-04-20T02:26:18;94270.72;;;16.81;41.94
35676;BME280;21790;42.668;23.298;2023-04-20T02:28:43;94278.06;;;16.89;42.09
35676;BME280;21790;42.668;23.298;2023-04-20T02:31:09;94275.53;;;16.86;42.42
35676;BME280;21790;42.668;23.298;2023-04-20T02:33:35;94269.22;;;16.85;42.16
35676;BME280;21790;42.668;23.298;2023-04-20T02:36:00;94281.09;;;16.91;42.28
35676;BME280;21790;42.668;23.298;2023-04-20T02:38:26;94277.03;;;16.92;42.08
35676;BME280;21790;42.668;23.298;2023-04-20T02:40:52;94280.34;;;16.91;42.17
35676;BME280;21790;42.668;23.298;2023-04-20T02:43:17;94288.19;;;16.98;41.78
35676;BME280;21790;42.668;23.298;2023-04-20T02:45:43;94290.47;;;16.99;41.98
35676;BME280;21790;42.668;23.298;2023-04-20T02:48:09;94284.38;;;17.01;42.05
35676;BME280;21790;42.668;23.298;2023-04-20T02:50:35;94284.88;;;16.99;41.68
35676;BME280;21790;42.668;23.298;2023-04-20T02:53:03;94286.16;;;16.93;42.04
35676;BME280;21790;42.668;23.298;2023-04-20T02:55:28;94287.69;;;16.99;41.78
35676;BME280;21790;42.668;23.298;2023-04-20T02:57:54;94287.44;;;16.92;42.05
35676;BME280;21790;42.668;23.298;2023-04-20T03:00:20;94288.44;;;16.94;42.00
35676;BME280;21790;42.668;23.298;2023-04-20T03:02:46;94286.94;;;16.93;42.06
35676;BME280;21790;42.668;23.298;2023-04-20T03:05:12;94284.66;;;16.86;42.12
35676;BME280;21790;42.668;23.298;2023-04-20T03:07:37;94282.41;;;16.79;42.15
35676;BME280;21790;42.668;23.298;2023-04-20T03:10:03;94273.53;;;16.75;42.35
35676;BME280;21790;42.668;23.298;2023-04-20T03:12:30;94272.22;;;16.93;41.70
35676;BME280;21790;42.668;23.298;2023-04-20T03:14:57;94277.06;;;16.81;42.17
35676;BME280;21790;42.668;23.298;2023-04-20T03:17:22;94269.97;;;16.80;42.32
35676;BME280;21790;42.668;23.298;2023-04-20T03:19:48;94276.28;;;16.92;41.95
35676;BME280;21790;42.668;23.298;2023-04-20T03:22:16;94275.75;;;16.99;41.79
35676;BME280;21790;42.668;23.298;2023-04-20T03:24:43;94274.94;;;17.09;41.53
35676;BME280;21790;42.668;23.298;2023-04-20T03:27:09;94283.91;;;16.86;41.75
35676;BME280;21790;42.668;23.298;2023-04-20T03:29:35;94284.13;;;16.93;41.51
35676;BME280;21790;42.668;23.298;2023-04-20T03:32:00;94282.56;;;17.03;41.40
35676;BME280;21790;42.668;23.298;2023-04-20T03:34:26;94287.69;;;16.99;41.27
35676;BME280;21790;42.668;23.298;2023-04-20T03:36:51;94292.50;;;16.99;41.34
35676;BME280;21790;42.668;23.298;2023-04-20T03:39:17;94280.56;;;16.98;41.63
35676;BME280;21790;42.668;23.298;2023-04-20T03:41:43;94292.78;;;16.95;41.58
35676;BME280;21790;42.668;23.298;2023-04-20T03:44:10;94286.44;;;16.95;41.36
35676;BME280;21790;42.668;23.298;2023-04-20T03:46:35;94290.94;;;17.03;41.53
35676;BME280;21790;42.668;23.298;2023-04-20T03:49:01;94280.25;;;17.13;41.39
35676;BME280;21790;42.668;23.298;2023-04-20T03:51:27;94281.06;;;17.02;41.65
35676;BME280;21790;42.668;23.298;2023-04-20T03:53:53;94283.63;;;17.00;41.44
35676;BME280;21790;42.668;23.298;2023-04-20T03:56:18;94280.88;;;16.84;41.80
35676;BME280;21790;42.668;23.298;2023-04-20T03:58:44;94285.91;;;17.02;41.58
35676;BME280;21790;42.668;23.298;2023-04-20T04:01:10;94284.09;;;17.04;41.47
35676;BME280;21790;42.668;23.298;2023-04-20T04:03:37;94283.13;;;16.96;41.42
35676;BME280;21790;42.668;23.298;2023-04-20T04:06:03;94283.34;;;17.04;41.46
35676;BME280;21790;42.668;23.298;2023-04-20T04:08:29;94294.75;;;17.06;41.25
35676;BME280;21790;42.668;23.298;2023-04-20T04:10:55;94296.50;;;17.14;41.06
35676;BME280;21790;42.668;23.298;2023-04-20T04:13:21;94292.94;;;17.14;41.33
35676;BME280;21790;42.668;23.298;2023-04-20T04:15:46;94289.31;;;17.30;41.23
35676;BME280;21790;42.668;23.298;2023-04-20T04:18:12;94292.59;;;17.40;40.72
35676;BME280;21790;42.668;23.298;2023-04-20T04:20:38;94306.09;;;17.19;41.09
35676;BME280;21790;42.668;23.298;2023-04-20T04:23:04;94295.44;;;17.29;40.80
35676;BME280;21790;42.668;23.298;2023-04-20T04:25:30;94297.72;;;17.25;40.95
35676;BME280;21790;42.668;23.298;2023-04-20T04:27:56;94301.88;;;17.01;41.49
35676;BME280;21790;42.668;23.298;2023-04-20T04:30:22;94295.78;;;16.97;41.74
35676;BME280;21790;42.668;23.298;2023-04-20T04:32:48;94296.78;;;17.05;41.22
35676;BME280;21790;42.668;23.298;2023-04-20T04:35:14;94294.28;;;16.96;41.41
35676;BME280;21790;42.668;23.298;2023-04-20T04:37:40;94299.81;;;17.07;41.06
35676;BME280;21790;42.668;23.298;2023-04-20T04:40:07;94303.59;;;17.15;41.16
35676;BME280;21790;42.668;23.298;2023-04-20T04:42:34;94304.69;;;17.01;41.32
35676;BME280;21790;42.668;23.298;2023-04-20T04:45:00;94311.25;;;17.04;41.28
35676;BME280;21790;42.668;23.298;2023-04-20T04:47:34;94314.50;;;17.13;41.15
35676;BME280;21790;42.668;23.298;2023-04-20T04:50:03;94314.28;;;17.11;41.23
35676;BME280;21790;42.668;23.298;2023-04-20T04:52:32;94316.50;;;17.19;41.07
35676;BME280;21790;42.668;23.298;2023-04-20T04:54:58;94321.13;;;17.10;40.97
35676;BME280;21790;42.668;23.298;2023-04-20T04:57:23;94318.84;;;17.09;41.12
35676;BME280;21790;42.668;23.298;2023-04-20T04:59:51;94319.66;;;16.98;41.41
35676;BME280;21790;42.668;23.298;2023-04-20T05:02:16;94330.28;;;17.11;41.52
35676;BME280;21790;42.668;23.298;2023-04-20T05:04:42;94323.91;;;17.10;40.92
35676;BME280;21790;42.668;23.298;2023-04-20T05:07:07;94326.72;;;17.05;41.26
35676;BME280;21790;42.668;23.298;2023-04-20T05:09:35;94327.25;;;17.03;41.34
35676;BME280;21790;42.668;23.298;2023-04-20T05:12:01;94334.31;;;17.15;41.09
35676;BME280;21790;42.668;23.298;2023-04-20T05:14:29;94321.38;;;17.12;40.98
35676;BME280;21790;42.668;23.298;2023-04-20T05:16:57;94333.53;;;17.15;41.37
35676;BME280;21790;42.668;23.298;2023-04-20T05:19:23;94320.63;;;17.70;48.53
35676;BME280;21790;42.668;23.298;2023-04-20T05:21:49;94323.16;;;18.09;43.93
35676;BME280;21790;42.668;23.298;2023-04-20T05:24:14;94324.13;;;18.11;41.72
35676;BME280;21790;42.668;23.298;2023-04-20T05:26:42;94325.34;;;18.21;40.97
35676;BME280;21790;42.668;23.298;2023-04-20T05:29:08;94332.44;;;18.22;39.07
35676;BME280;21790;42.668;23.298;2023-04-20T05:31:34;94328.00;;;18.08;39.64
35676;BME280;21790;42.668;23.298;2023-04-20T05:33:59;94324.59;;;17.85;39.88
35676;BME280;21790;42.668;23.298;2023-04-20T05:36:26;94328.47;;;17.77;40.28
35676;BME280;21790;42.668;23.298;2023-04-20T05:38:53;94334.44;;;17.51;40.40
35676;BME280;21790;42.668;23.298;2023-04-20T05:41:19;94334.38;;;17.56;40.71
35676;BME280;21790;42.668;23.298;2023-04-20T05:43:51;94341.28;;;17.50;41.10
35676;BME280;21790;42.668;23.298;2023-04-20T05:46:16;94345.34;;;17.49;41.23
35676;BME280;21790;42.668;23.298;2023-04-20T05:48:42;94341.34;;;17.39;41.74
35676;BME280;21790;42.668;23.298;2023-04-20T05:51:08;94343.06;;;17.47;41.78
35676;BME280;21790;42.668;23.298;2023-04-20T05:53:34;94337.16;;;17.56;41.41
35676;BME280;21790;42.668;23.298;2023-04-20T05:55:59;94344.59;;;17.48;41.33
35676;BME280;21790;42.668;23.298;2023-04-20T05:58:25;94336.50;;;17.39;41.69
35676;BME280;21790;42.668;23.298;2023-04-20T06:00:52;94344.13;;;17.39;41.91
35676;BME280;21790;42.668;23.298;2023-04-20T06:03:19;94339.31;;;17.39;42.04
35676;BME280;21790;42.668;23.298;2023-04-20T06:05:45;94340.63;;;17.22;42.52
35676;BME280;21790;42.668;23.298;2023-04-20T06:08:13;94333.47;;;17.32;42.53
35676;BME280;21790;42.668;23.298;2023-04-20T06:10:42;94341.09;;;17.31;43.06
35676;BME280;21790;42.668;23.298;2023-04-20T06:13:07;94336.31;;;17.21;43.80
35676;BME280;21790;42.668;23.298;2023-04-20T06:15:33;94337.59;;;17.20;43.94
35676;BME280;21790;42.668;23.298;2023-04-20T06:17:59;94339.88;;;17.15;43.94
35676;BME280;21790;42.668;23.298;2023-04-20T06:20:25;94338.63;;;17.17;44.41
35676;BME280;21790;42.668;23.298;2023-04-20T06:22:51;94340.88;;;17.24;43.99
35676;BME280;21790;42.668;23.298;2023-04-20T06:25:17;94345.44;;;17.27;43.99
35676;BME280;21790;42.668;23.298;2023-04-20T06:27:43;94338.03;;;17.35;43.68
35676;BME280;21790;42.668;23.298;2023-04-20T06:30:09;94344.69;;;17.26;43.58
35676;BME280;21790;42.668;23.298;2023-04-20T06:32:35;94342.66;;;17.27;43.45
35676;BME280;21790;42.668;23.298;2023-04-20T06:35:00;94337.53;;;17.36;43.52
35676;BME280;21790;42.668;23.298;2023-04-20T06:37:27;94350.94;;;17.49;43.26
35676;BME280;21790;42.668;23.298;2023-04-20T06:39:54;94345.81;;;17.53;43.23
35676;BME280;21790;42.668;23.298;2023-04-20T06:42:20;94350.97;;;17.43;43.27
35676;BME280;21790;42.668;23.298;2023-04-20T06:44:46;94346.91;;;17.39;43.58
35676;BME280;21790;42.668;23.298;2023-04-20T06:47:12;94356.25;;;17.52;43.24
35676;BME280;21790;42.668;23.298;2023-04-20T06:49:39;94351.66;;;17.55;43.23
35676;BME280;21790;42.668;23.298;2023-04-20T06:52:05;94366.91;;;17.54;43.37
35676;BME280;21790;42.668;23.298;2023-04-20T06:54:31;94367.22;;;17.45;43.25
35676;BME280;21790;42.668;23.298;2023-04-20T06:56:57;94356.56;;;17.38;43.44
35676;BME280;21790;42.668;23.298;2023-04-20T06:59:23;94359.84;;;17.42;43.72
35676;BME280;21790;42.668;23.298;2023-04-20T07:01:48;94355.56;;;17.30;44.64
35676;BME280;21790;42.668;23.298;2023-04-20T07:04:17;94370.25;;;17.41;44.66
35676;BME280;21790;42.668;23.298;2023-04-20T07:06:42;94370.03;;;17.39;44.95
35676;BME280;21790;42.668;23.298;2023-04-20T07:09:08;94374.06;;;17.44;44.77
35676;BME280;21790;42.668;23.298;2023-04-20T07:11:34;94371.50;;;17.46;44.85
35676;BME280;21790;42.668;23.298;2023-04-20T07:14:02;94379.44;;;17.31;45.19
35676;BME280;21790;42.668;23.298;2023-04-20T07:16:31;94372.56;;;17.37;45.18
35676;BME280;21790;42.668;23.298;2023-04-20T07:18:56;94371.31;;;17.33;44.65
35676;BME280;21790;42.668;23.298;2023-04-20T07:21:22;94370.81;;;17.29;45.22
35676;BME280;21790;42.668;23.298;2023-04-20T07:23:50;94371.47;;;17.51;44.51
35676;BME280;21790;42.668;23.298;2023-04-20T07:26:15;94363.69;;;17.33;44.66
35676;BME280;21790;42.668;23.298;2023-04-20T07:28:42;94375.63;;;17.39;44.47
35676;BME280;21790;42.668;23.298;2023-04-20T07:31:08;94372.31;;;17.30;44.59
35676;BME280;21790;42.668;23.298;2023-04-20T07:33:33;94367.75;;;17.38;44.20
35676;BME280;21790;42.668;23.298;2023-04-20T07:36:00;94369.78;;;17.32;44.04
35676;BME280;21790;42.668;23.298;2023-04-20T07:38:27;94366.44;;;17.50;44.19
35676;BME280;21790;42.668;23.298;2023-04-20T07:40:53;94369.81;;;17.21;43.33
35676;BME280;21790;42.668;23.298;2023-04-20T07:43:18;94372.19;;;17.00;44.45
35676;BME280;21790;42.668;23.298;2023-04-20T07:45:44;94371.22;;;17.55;43.68
35676;BME280;21790;42.668;23.298;2023-04-20T07:48:10;94369.34;;;17.80;43.68
35676;BME280;21790;42.668;23.298;2023-04-20T07:50:36;94363.75;;;17.80;42.95
35676;BME280;21790;42.668;23.298;2023-04-20T07:53:02;94366.66;;;18.04;43.21
35676;BME280;21790;42.668;23.298;2023-04-20T07:55:28;94368.75;;;18.28;42.57
35676;BME280;21790;42.668;23.298;2023-04-20T07:57:54;94362.22;;;18.55;42.24
35676;BME280;21790;42.668;23.298;2023-04-20T08:00:19;94359.53;;;18.74;41.42
35676;BME280;21790;42.668;23.298;2023-04-20T08:02:45;94357.53;;;18.69;41.37
35676;BME280;21790;42.668;23.298;2023-04-20T08:05:11;94364.78;;;18.83;40.97
35676;BME280;21790;42.668;23.298;2023-04-20T08:07:37;94356.00;;;18.98;40.53
35676;BME280;21790;42.668;23.298;2023-04-20T08:10:04;94364.38;;;18.98;41.01
35676;BME280;21790;42.668;23.298;2023-04-20T08:12:30;94351.16;;;18.68;40.35
35676;BME280;21790;42.668;23.298;2023-04-20T08:14:56;94369.03;;;18.90;40.61
35676;BME280;21790;42.668;23.298;2023-04-20T08:17:29;94357.22;;;18.72;39.97
35676;BME280;21790;42.668;23.298;2023-04-20T08:19:55;94363.28;;;18.76;40.60
35676;BME280;21790;42.668;23.298;2023-04-20T08:22:21;94358.38;;;18.58;40.83
35676;BME280;21790;42.668;23.298;2023-04-20T08:24:48;94378.88;;;18.72;40.36
35676;BME280;21790;42.668;23.298;2023-04-20T08:27:14;94375.66;;;18.62;40.58
35676;BME280;21790;42.668;23.298;2023-04-20T08:29:40;94370.69;;;18.44;40.52
35676;BME280;21790;42.668;23.298;2023-04-20T08:32:05;94375.72;;;18.51;40.29
35676;BME280;21790;42.668;23.298;2023-04-20T08:34:34;94372.59;;;18.60;40.52
35676;BME280;21790;42.668;23.298;2023-04-20T08:37:00;94370.69;;;18.44;40.79
35676;BME280;21790;42.668;23.298;2023-04-20T08:39:26;94371.72;;;18.41;40.70
35676;BME280;21790;42.668;23.298;2023-04-20T08:41:51;94375.78;;;18.40;40.81
35676;BME280;21790;42.668;23.298;2023-04-20T08:44:20;94375.84;;;18.34;40.94
35676;BME280;21790;42.668;23.298;2023-04-20T08:46:47;94382.19;;;18.35;40.39
35676;BME280;21790;42.668;23.298;2023-04-20T08:49:17;94376.09;;;18.36;40.64
35676;BME280;21790;42.668;23.298;2023-04-20T08:51:44;94378.94;;;18.31;40.94
35676;BME280;21790;42.668;23.298;2023-04-20T08:54:11;94378.69;;;18.29;40.62
35676;BME280;21790;42.668;23.298;2023-04-20T08:56:42;94374.94;;;18.51;40.51
35676;BME280;21790;42.668;23.298;2023-04-20T08:59:08;94382.34;;;18.13;41.36
35676;BME280;21790;42.668;23.298;2023-04-20T09:01:42;94379.81;;;18.15;41.05
35676;BME280;21790;42.668;23.298;2023-04-20T09:04:21;94385.75;;;18.35;41.10
35676;BME280;21790;42.668;23.298;2023-04-20T09:06:49;94381.94;;;18.33;41.27
35676;BME280;21790;42.668;23.298;2023-04-20T09:09:16;94379.72;;;18.26;40.88
35676;BME280;21790;42.668;23.298;2023-04-20T09:11:43;94382.75;;;18.28;40.65
35676;BME280;21790;42.668;23.298;2023-04-20T09:14:11;94386.44;;;18.47;40.95
35676;BME280;21790;42.668;23.298;2023-04-20T09:16:50;94381.91;;;18.38;41.11
35676;BME280;21790;42.668;23.298;2023-04-20T09:19:24;94381.28;;;18.21;40.94
35676;BME280;21790;42.668;23.298;2023-04-20T09:21:54;94383.31;;;18.21;40.97
35676;BME280;21790;42.668;23.298;2023-04-20T09:24:23;94376.03;;;18.42;40.88
35676;BME280;21790;42.668;23.298;2023-04-20T09:26:54;94376.03;;;18.42;40.75
35676;BME280;21790;42.668;23.298;2023-04-20T09:29:22;94373.72;;;18.46;40.60
35676;BME280;21790;42.668;23.298;2023-04-20T09:31:49;94375.72;;;18.51;40.73
35676;BME280;21790;42.668;23.298;2023-04-20T09:34:15;94371.56;;;18.28;41.24
35676;BME280;21790;42.668;23.298;2023-04-20T09:36:46;94361.00;;;17.69;41.59
35676;BME280;21790;42.668;23.298;2023-04-20T09:39:17;94362.97;;;17.79;41.78
35676;BME280;21790;42.668;23.298;2023-04-20T09:41:43;94355.53;;;18.28;41.57
35676;BME280;21790;42.668;23.298;2023-04-20T09:44:10;94362.41;;;18.63;40.97
35676;BME280;21790;42.668;23.298;2023-04-20T09:46:38;94365.41;;;18.95;41.04
35676;BME280;21790;42.668;23.298;2023-04-20T09:49:06;94361.69;;;19.11;40.68
35676;BME280;21790;42.668;23.298;2023-04-20T09:51:35;94361.38;;;19.39;40.48
35676;BME280;21790;42.668;23.298;2023-04-20T09:54:02;94354.16;;;19.49;39.24
35676;BME280;21790;42.668;23.298;2023-04-20T09:56:29;94331.69;;;19.30;39.54
35676;BME280;21790;42.668;23.298;2023-04-20T09:58:56;94346.09;;;19.40;39.91
35676;BME280;21790;42.668;23.298;2023-04-20T10:01:22;94352.22;;;19.38;38.99
35676;BME280;21790;42.668;23.298;2023-04-20T10:03:49;94351.91;;;19.47;39.67
35676;BME280;21790;42.668;23.298;2023-04-20T10:06:38;94346.44;;;19.92;38.41
35676;BME280;21790;42.668;23.298;2023-04-20T10:09:06;94346.44;;;20.11;38.46
35676;BME280;21790;42.668;23.298;2023-04-20T10:11:36;94343.38;;;20.28;38.27
35676;BME280;21790;42.668;23.298;2023-04-20T10:14:15;94339.75;;;20.33;38.04
35676;BME280;21790;42.668;23.298;2023-04-20T10:16:42;94326.47;;;20.15;38.10
35676;BME280;21790;42.668;23.298;2023-04-20T10:19:08;94336.44;;;19.78;38.82
35676;BME280;21790;42.668;23.298;2023-04-20T10:21:44;94329.75;;;20.00;38.60
35676;BME280;21790;42.668;23.298;2023-04-20T10:24:10;94326.72;;;20.17;38.28
35676;BME280;21790;42.668;23.298;2023-04-20T10:26:43;94329.44;;;20.22;38.19
35676;BME280;21790;42.668;23.298;2023-04-20T10:29:27;94330.91;;;19.91;38.49
35676;BME280;21790;42.668;23.298;2023-04-20T10:31:53;94344.09;;;19.78;38.60
35676;BME280;21790;42.668;23.298;2023-04-20T10:34:30;94307.03;;;19.85;38.02
35676;BME280;21790;42.668;23.298;2023-04-20T10:37:09;94325.59;;;20.07;38.26
35676;BME280;21790;42.668;23.298;2023-04-20T10:39:36;94326.44;;;19.83;38.09
35676;BME280;21790;42.668;23.298;2023-04-20T10:42:05;94315.50;;;19.98;37.72
35676;BME280;21790;42.668;23.298;2023-04-20T10:44:31;94315.84;;;20.26;37.62
35676;BME280;21790;42.668;23.298;2023-04-20T10:46:58;94319.94;;;20.25;37.99
35676;BME280;21790;42.668;23.298;2023-04-20T10:49:28;94323.88;;;20.35;37.85
35676;BME280;21790;42.668;23.298;2023-04-20T10:51:55;94325.19;;;20.34;37.49
35676;BME280;21790;42.668;23.298;2023-04-20T10:54:21;94321.34;;;20.51;37.89
35676;BME280;21790;42.668;23.298;2023-04-20T10:56:51;94316.28;;;20.62;37.53
35676;BME280;21790;42.668;23.298;2023-04-20T10:59:19;94316.75;;;20.79;37.14
35676;BME280;21790;42.668;23.298;2023-04-20T11:01:45;94316.25;;;20.94;36.71
35676;BME280;21790;42.668;23.298;2023-04-20T11:04:12;94311.03;;;20.85;36.38
35676;BME280;21790;42.668;23.298;2023-04-20T11:06:39;94306.31;;;20.93;37.35
35676;BME280;21790;42.668;23.298;2023-04-20T11:09:23;94312.06;;;21.27;37.06
35676;BME280;21790;42.668;23.298;2023-04-20T11:14:35;94308.03;;;21.09;35.91
35676;BME280;21790;42.668;23.298;2023-04-20T11:17:07;94297.03;;;21.24;36.54
35676;BME280;21790;42.668;23.298;2023-04-20T11:19:35;94303.91;;;21.50;36.06
35676;BME280;21790;42.668;23.298;2023-04-20T11:22:02;94298.63;;;21.33;35.72
35676;BME280;21790;42.668;23.298;2023-04-20T11:24:30;94293.41;;;20.08;36.98
35676;BME280;21790;42.668;23.298;2023-04-20T11:26:58;94291.72;;;19.86;37.86
35676;BME280;21790;42.668;23.298;2023-04-20T11:29:34;94301.25;;;20.46;37.43
35676;BME280;21790;42.668;23.298;2023-04-20T11:32:05;94297.00;;;20.72;37.42
35676;BME280;21790;42.668;23.298;2023-04-20T11:34:33;94288.00;;;20.73;36.20
35676;BME280;21790;42.668;23.298;2023-04-20T11:37:10;94280.69;;;20.97;36.50
35676;BME280;21790;42.668;23.298;2023-04-20T11:39:37;94285.88;;;20.93;36.14
35676;BME280;21790;42.668;23.298;2023-04-20T11:42:04;94282.84;;;20.77;35.93
35676;BME280;21790;42.668;23.298;2023-04-20T11:44:30;94269.13;;;20.87;36.52
35676;BME280;21790;42.668;23.298;2023-04-20T11:46:56;94273.25;;;20.99;36.17
35676;BME280;21790;42.668;23.298;2023-04-20T11:49:23;94275.72;;;20.76;35.74
35676;BME280;21790;42.668;23.298;2023-04-20T11:51:49;94278.44;;;21.08;35.57
35676;BME280;21790;42.668;23.298;2023-04-20T11:54:15;94281.22;;;20.82;35.63
35676;BME280;21790;42.668;23.298;2023-04-20T11:56:43;94279.28;;;20.77;34.99
35676;BME280;21790;42.668;23.298;2023-04-20T11:59:10;94276.25;;;20.75;36.15
35676;BME280;21790;42.668;23.298;2023-04-20T12:01:36;94277.34;;;20.85;35.21
35676;BME280;21790;42.668;23.298;2023-04-20T12:04:03;94279.94;;;21.09;34.94
35676;BME280;21790;42.668;23.298;2023-04-20T12:06:30;94277.44;;;20.93;34.69
35676;BME280;21790;42.668;23.298;2023-04-20T12:08:59;94277.00;;;20.75;34.95
35676;BME280;21790;42.668;23.298;2023-04-20T12:11:25;94270.75;;;20.82;35.20
35676;BME280;21790;42.668;23.298;2023-04-20T12:13:51;94280.34;;;21.00;34.74
35676;BME280;21790;42.668;23.298;2023-04-20T12:16:19;94284.00;;;20.69;35.36
35676;BME280;21790;42.668;23.298;2023-04-20T12:18:45;94283.25;;;20.55;36.21
35676;BME280;21790;42.668;23.298;2023-04-20T12:21:11;94296.63;;;20.49;36.63
35676;BME280;21790;42.668;23.298;2023-04-20T12:23:37;94298.44;;;20.46;38.48
35676;BME280;21790;42.668;23.298;2023-04-20T12:26:05;94288.88;;;20.23;39.52
35676;BME280;21790;42.668;23.298;2023-04-20T12:28:31;94290.81;;;19.96;41.86
35676;BME280;21790;42.668;23.298;2023-04-20T12:30:57;94291.44;;;19.89;41.83
35676;BME280;21790;42.668;23.298;2023-04-20T12:33:23;94281.66;;;19.96;41.71
35676;BME280;21790;42.668;23.298;2023-04-20T12:35:49;94275.53;;;20.11;41.48
35676;BME280;21790;42.668;23.298;2023-04-20T12:38:21;94274.06;;;20.55;41.66
35676;BME280;21790;42.668;23.298;2023-04-20T12:40:46;94276.22;;;20.49;41.08
35676;BME280;21790;42.668;23.298;2023-04-20T12:43:12;94269.50;;;20.38;40.41
35676;BME280;21790;42.668;23.298;2023-04-20T12:45:38;94269.41;;;20.57;40.21
35676;BME280;21790;42.668;23.298;2023-04-20T12:48:04;94266.53;;;20.76;40.16
35676;BME280;21790;42.668;23.298;2023-04-20T12:50:30;94261.34;;;20.80;39.99